Medway, Maine
Current Conditions -  °F | °C
As of 6:53 PM on Friday 24 Oct 2014 (Local Time) from KMLT Reporting Station
Light Rain Light Rain  
Wind Chill: 37°   Ceiling: 1200
Heat Index: 43°   Visibility: 6mi
Dew Point: 40°   Wind: 10mph
Humidity: 89%   Direction: 360°N
Pressure: 29.69"   Gusts: NA
Location:  45.61°N, 68.53°W
Report Text: KMLT 242253Z AUTO 36009KT 6SM -RA BR BKN012 BKN027 OVC037 06/04 A2969 RMK AO2 RAB05E14B35 SLP060 P0000 T00610044
Loading
Personal Weather Stations






























Interactive Weather Map
Tropical Storm Tracking
New forecast layout! Learn more

10-Day Weather Forecast

Advertisements
Track Severe Weather on mobile